sensor_id;sensor_type;location;lat;lon;timestamp;temperature;humidity
52495;DHT22;38405;53.212;5.660;2022-12-22T00:02:19;7.60;99.90
52495;DHT22;38405;53.212;5.660;2022-12-22T00:05:23;7.60;99.90
52495;DHT22;38405;53.212;5.660;2022-12-22T00:08:08;7.60;99.90
52495;DHT22;38405;53.212;5.660;2022-12-22T00:10:53;7.60;99.90
52495;DHT22;38405;53.212;5.660;2022-12-22T00:13:40;7.60;99.90
52495;DHT22;38405;53.212;5.660;2022-12-22T00:16:34;7.70;99.90
52495;DHT22;38405;53.212;5.660;2022-12-22T00:19:18;7.70;99.90
52495;DHT22;38405;53.212;5.660;2022-12-22T00:22:12;7.60;99.90
52495;DHT22;38405;53.212;5.660;2022-12-22T00:24:57;7.60;99.90
52495;DHT22;38405;53.212;5.660;2022-12-22T00:27:41;7.80;99.90
52495;DHT22;38405;53.212;5.660;2022-12-22T00:30:26;7.60;99.90
52495;DHT22;38405;53.212;5.660;2022-12-22T00:33:13;7.60;99.90
52495;DHT22;38405;53.212;5.660;2022-12-22T00:35:57;7.60;99.90
52495;DHT22;38405;53.212;5.660;2022-12-22T00:38:41;7.50;99.90
52495;DHT22;38405;53.212;5.660;2022-12-22T00:41:26;7.50;99.90
52495;DHT22;38405;53.212;5.660;2022-12-22T00:44:10;7.40;99.90
52495;DHT22;38405;53.212;5.660;2022-12-22T00:46:54;7.40;99.90
52495;DHT22;38405;53.212;5.660;2022-12-22T00:49:40;7.40;99.90
52495;DHT22;38405;53.212;5.660;2022-12-22T00:52:28;7.40;99.90
52495;DHT22;38405;53.212;5.660;2022-12-22T00:55:15;7.50;99.90
52495;DHT22;38405;53.212;5.660;2022-12-22T00:57:59;7.40;99.90
52495;DHT22;38405;53.212;5.660;2022-12-22T01:00:44;7.50;99.90
52495;DHT22;38405;53.212;5.660;2022-12-22T01:03:28;7.40;99.90
52495;DHT22;38405;53.212;5.660;2022-12-22T01:06:13;7.40;99.90
52495;DHT22;38405;53.212;5.660;2022-12-22T01:08:57;7.40;99.90
52495;DHT22;38405;53.212;5.660;2022-12-22T01:11:42;7.40;99.90
52495;DHT22;38405;53.212;5.660;2022-12-22T01:14:26;7.40;99.90
52495;DHT22;38405;53.212;5.660;2022-12-22T01:17:11;7.40;99.90
52495;DHT22;38405;53.212;5.660;2022-12-22T01:19:55;7.60;99.90
52495;DHT22;38405;53.212;5.660;2022-12-22T01:22:40;7.40;99.90
52495;DHT22;38405;53.212;5.660;2022-12-22T01:25:25;7.30;99.90
52495;DHT22;38405;53.212;5.660;2022-12-22T01:28:14;7.10;99.90
52495;DHT22;38405;53.212;5.660;2022-12-22T01:31:15;7.00;99.90
52495;DHT22;38405;53.212;5.660;2022-12-22T01:33:59;7.00;99.90
52495;DHT22;38405;53.212;5.660;2022-12-22T01:36:44;7.00;99.90
52495;DHT22;38405;53.212;5.660;2022-12-22T01:39:28;7.00;99.90
52495;DHT22;38405;53.212;5.660;2022-12-22T01:42:13;7.10;99.90
52495;DHT22;38405;53.212;5.660;2022-12-22T01:45:01;7.10;99.90
52495;DHT22;38405;53.212;5.660;2022-12-22T01:47:54;7.20;99.90
52495;DHT22;38405;53.212;5.660;2022-12-22T01:50:39;7.20;99.90
52495;DHT22;38405;53.212;5.660;2022-12-22T01:53:24;7.30;99.90
52495;DHT22;38405;53.212;5.660;2022-12-22T01:56:10;7.40;99.90
52495;DHT22;38405;53.212;5.660;2022-12-22T01:58:56;7.50;99.90
52495;DHT22;38405;53.212;5.660;2022-12-22T02:01:42;7.50;99.90
52495;DHT22;38405;53.212;5.660;2022-12-22T02:04:38;7.60;99.90
52495;DHT22;38405;53.212;5.660;2022-12-22T02:11:07;7.80;99.90
52495;DHT22;38405;53.212;5.660;2022-12-22T02:23:40;7.40;99.90
52495;DHT22;38405;53.212;5.660;2022-12-22T02:26:32;7.30;99.90
52495;DHT22;38405;53.212;5.660;2022-12-22T02:29:24;7.20;99.90
52495;DHT22;38405;53.212;5.660;2022-12-22T02:32:09;7.30;99.90
52495;DHT22;38405;53.212;5.660;2022-12-22T02:34:54;7.20;99.90
52495;DHT22;38405;53.212;5.660;2022-12-22T02:47:11;7.30;99.90
52495;DHT22;38405;53.212;5.660;2022-12-22T02:50:02;7.40;99.90
52495;DHT22;38405;53.212;5.660;2022-12-22T02:52:49;7.40;99.90
52495;DHT22;38405;53.212;5.660;2022-12-22T02:55:33;7.40;99.90
52495;DHT22;38405;53.212;5.660;2022-12-22T02:58:18;7.50;99.90
52495;DHT22;38405;53.212;5.660;2022-12-22T03:01:04;7.50;99.90
52495;DHT22;38405;53.212;5.660;2022-12-22T03:03:48;7.50;99.90
52495;DHT22;38405;53.212;5.660;2022-12-22T03:06:33;7.60;99.90
52495;DHT22;38405;53.212;5.660;2022-12-22T03:09:17;7.60;99.90
52495;DHT22;38405;53.212;5.660;2022-12-22T03:12:01;7.60;99.90
52495;DHT22;38405;53.212;5.660;2022-12-22T03:14:45;7.70;99.90
52495;DHT22;38405;53.212;5.660;2022-12-22T03:17:30;7.60;99.90
52495;DHT22;38405;53.212;5.660;2022-12-22T03:20:14;7.60;99.90
52495;DHT22;38405;53.212;5.660;2022-12-22T03:23:05;7.70;99.90
52495;DHT22;38405;53.212;5.660;2022-12-22T03:25:50;7.60;99.90
52495;DHT22;38405;53.212;5.660;2022-12-22T03:28:20;7.70;99.90
52495;DHT22;38405;53.212;5.660;2022-12-22T03:30:56;7.60;99.90
52495;DHT22;38405;53.212;5.660;2022-12-22T03:33:22;7.60;99.90
52495;DHT22;38405;53.212;5.660;2022-12-22T03:35:47;7.50;99.90
52495;DHT22;38405;53.212;5.660;2022-12-22T03:38:13;7.50;99.90
52495;DHT22;38405;53.212;5.660;2022-12-22T03:40:39;7.60;99.90
52495;DHT22;38405;53.212;5.660;2022-12-22T03:43:04;7.50;99.90
52495;DHT22;38405;53.212;5.660;2022-12-22T03:45:53;7.50;99.90
52495;DHT22;38405;53.212;5.660;2022-12-22T03:48:38;7.40;99.90
52495;DHT22;38405;53.212;5.660;2022-12-22T03:51:03;7.40;99.90
52495;DHT22;38405;53.212;5.660;2022-12-22T03:53:29;7.40;99.90
52495;DHT22;38405;53.212;5.660;2022-12-22T03:55:54;7.50;99.90
52495;DHT22;38405;53.212;5.660;2022-12-22T03:58:20;7.50;99.90
52495;DHT22;38405;53.212;5.660;2022-12-22T04:00:46;7.50;99.90
52495;DHT22;38405;53.212;5.660;2022-12-22T04:03:11;7.50;99.90
52495;DHT22;38405;53.212;5.660;2022-12-22T04:05:38;7.50;99.90
52495;DHT22;38405;53.212;5.660;2022-12-22T04:08:04;7.60;99.90
52495;DHT22;38405;53.212;5.660;2022-12-22T04:10:30;7.50;99.90
52495;DHT22;38405;53.212;5.660;2022-12-22T04:13:15;7.70;99.90
52495;DHT22;38405;53.212;5.660;2022-12-22T04:15:41;7.50;99.90
52495;DHT22;38405;53.212;5.660;2022-12-22T04:18:06;7.60;99.90
52495;DHT22;38405;53.212;5.660;2022-12-22T04:20:32;7.60;99.90
52495;DHT22;38405;53.212;5.660;2022-12-22T04:22:58;7.60;99.90
52495;DHT22;38405;53.212;5.660;2022-12-22T04:25:25;7.60;99.90
52495;DHT22;38405;53.212;5.660;2022-12-22T04:27:51;7.50;99.90
52495;DHT22;38405;53.212;5.660;2022-12-22T04:30:17;7.60;99.90
52495;DHT22;38405;53.212;5.660;2022-12-22T04:32:43;7.50;99.90
52495;DHT22;38405;53.212;5.660;2022-12-22T04:35:09;7.60;99.90
52495;DHT22;38405;53.212;5.660;2022-12-22T04:37:35;7.70;99.90
52495;DHT22;38405;53.212;5.660;2022-12-22T04:40:00;7.60;99.90
52495;DHT22;38405;53.212;5.660;2022-12-22T04:42:26;7.50;99.90
52495;DHT22;38405;53.212;5.660;2022-12-22T04:44:52;7.50;99.90
52495;DHT22;38405;53.212;5.660;2022-12-22T04:47:17;7.50;99.90
52495;DHT22;38405;53.212;5.660;2022-12-22T04:49:43;7.40;99.90
52495;DHT22;38405;53.212;5.660;2022-12-22T04:52:09;7.40;99.90
52495;DHT22;38405;53.212;5.660;2022-12-22T04:54:34;7.40;99.90
52495;DHT22;38405;53.212;5.660;2022-12-22T04:57:00;7.40;99.90
52495;DHT22;38405;53.212;5.660;2022-12-22T04:59:25;7.30;99.90
52495;DHT22;38405;53.212;5.660;2022-12-22T05:01:51;7.20;99.90
52495;DHT22;38405;53.212;5.660;2022-12-22T05:04:17;7.20;99.90
52495;DHT22;38405;53.212;5.660;2022-12-22T05:06:42;7.20;99.90
52495;DHT22;38405;53.212;5.660;2022-12-22T05:09:09;7.30;99.90
52495;DHT22;38405;53.212;5.660;2022-12-22T05:11:35;7.10;99.90
52495;DHT22;38405;53.212;5.660;2022-12-22T05:14:00;7.00;99.90
52495;DHT22;38405;53.212;5.660;2022-12-22T05:16:26;6.90;99.90
52495;DHT22;38405;53.212;5.660;2022-12-22T05:18:52;7.00;99.90
52495;DHT22;38405;53.212;5.660;2022-12-22T05:21:19;6.80;99.90
52495;DHT22;38405;53.212;5.660;2022-12-22T05:23:45;6.80;99.90
52495;DHT22;38405;53.212;5.660;2022-12-22T05:26:12;6.70;99.90
52495;DHT22;38405;53.212;5.660;2022-12-22T05:28:39;6.80;99.90
52495;DHT22;38405;53.212;5.660;2022-12-22T05:31:07;6.60;99.90
52495;DHT22;38405;53.212;5.660;2022-12-22T05:33:33;6.60;99.90
52495;DHT22;38405;53.212;5.660;2022-12-22T05:35:59;6.60;99.90
52495;DHT22;38405;53.212;5.660;2022-12-22T05:38:25;6.50;99.90
52495;DHT22;38405;53.212;5.660;2022-12-22T05:40:50;6.50;99.90
52495;DHT22;38405;53.212;5.660;2022-12-22T05:43:16;6.60;99.90
52495;DHT22;38405;53.212;5.660;2022-12-22T05:45:45;6.40;99.90
52495;DHT22;38405;53.212;5.660;2022-12-22T05:48:11;6.30;99.90
52495;DHT22;38405;53.212;5.660;2022-12-22T05:50:36;6.30;99.90
52495;DHT22;38405;53.212;5.660;2022-12-22T05:53:03;6.20;99.90
52495;DHT22;38405;53.212;5.660;2022-12-22T05:55:28;6.10;99.90
52495;DHT22;38405;53.212;5.660;2022-12-22T05:57:54;6.00;99.90
52495;DHT22;38405;53.212;5.660;2022-12-22T06:00:20;6.00;99.90
52495;DHT22;38405;53.212;5.660;2022-12-22T06:02:46;5.90;99.90
52495;DHT22;38405;53.212;5.660;2022-12-22T06:05:13;5.90;99.90
52495;DHT22;38405;53.212;5.660;2022-12-22T06:07:39;5.80;99.90
52495;DHT22;38405;53.212;5.660;2022-12-22T06:10:08;5.80;99.90
52495;DHT22;38405;53.212;5.660;2022-12-22T06:12:34;5.80;99.90
52495;DHT22;38405;53.212;5.660;2022-12-22T06:15:00;5.70;99.90
52495;DHT22;38405;53.212;5.660;2022-12-22T06:17:25;5.60;99.90
52495;DHT22;38405;53.212;5.660;2022-12-22T06:19:51;5.50;99.90
52495;DHT22;38405;53.212;5.660;2022-12-22T06:22:17;5.50;99.90
52495;DHT22;38405;53.212;5.660;2022-12-22T06:24:42;5.40;99.90
52495;DHT22;38405;53.212;5.660;2022-12-22T06:27:08;5.30;99.90
52495;DHT22;38405;53.212;5.660;2022-12-22T06:29:35;5.20;99.90
52495;DHT22;38405;53.212;5.660;2022-12-22T06:32:01;5.10;99.90
52495;DHT22;38405;53.212;5.660;2022-12-22T06:34:27;5.20;99.90
52495;DHT22;38405;53.212;5.660;2022-12-22T06:36:53;5.00;99.90
52495;DHT22;38405;53.212;5.660;2022-12-22T06:39:18;4.90;99.90
52495;DHT22;38405;53.212;5.660;2022-12-22T06:41:44;4.80;99.90
52495;DHT22;38405;53.212;5.660;2022-12-22T06:44:28;4.70;99.90
52495;DHT22;38405;53.212;5.660;2022-12-22T06:46:54;4.70;99.90
52495;DHT22;38405;53.212;5.660;2022-12-22T06:49:20;4.60;99.90
52495;DHT22;38405;53.212;5.660;2022-12-22T06:51:46;4.50;99.90
52495;DHT22;38405;53.212;5.660;2022-12-22T06:54:12;4.40;99.90
52495;DHT22;38405;53.212;5.660;2022-12-22T06:56:37;4.40;99.90
52495;DHT22;38405;53.212;5.660;2022-12-22T06:59:03;4.30;99.90
52495;DHT22;38405;53.212;5.660;2022-12-22T07:01:29;4.20;99.90
52495;DHT22;38405;53.212;5.660;2022-12-22T07:03:54;4.10;99.90
52495;DHT22;38405;53.212;5.660;2022-12-22T07:06:20;4.10;99.90
52495;DHT22;38405;53.212;5.660;2022-12-22T07:08:46;4.00;99.90
52495;DHT22;38405;53.212;5.660;2022-12-22T07:11:12;3.90;99.90
52495;DHT22;38405;53.212;5.660;2022-12-22T07:13:38;3.90;99.90
52495;DHT22;38405;53.212;5.660;2022-12-22T07:16:05;3.80;99.90
52495;DHT22;38405;53.212;5.660;2022-12-22T07:18:36;3.70;99.90
52495;DHT22;38405;53.212;5.660;2022-12-22T07:21:04;3.70;99.90
52495;DHT22;38405;53.212;5.660;2022-12-22T07:23:30;3.60;99.90
52495;DHT22;38405;53.212;5.660;2022-12-22T07:25:57;3.80;99.90
52495;DHT22;38405;53.212;5.660;2022-12-22T07:28:23;3.60;99.90
52495;DHT22;38405;53.212;5.660;2022-12-22T07:30:50;3.60;99.90
52495;DHT22;38405;53.212;5.660;2022-12-22T07:33:17;3.60;99.90
52495;DHT22;38405;53.212;5.660;2022-12-22T07:35:42;3.60;99.90
52495;DHT22;38405;53.212;5.660;2022-12-22T07:38:08;3.60;99.90
52495;DHT22;38405;53.212;5.660;2022-12-22T07:40:34;3.60;99.90
52495;DHT22;38405;53.212;5.660;2022-12-22T07:42:59;3.50;99.90
52495;DHT22;38405;53.212;5.660;2022-12-22T07:45:26;3.50;99.90
52495;DHT22;38405;53.212;5.660;2022-12-22T07:47:58;3.50;99.90
52495;DHT22;38405;53.212;5.660;2022-12-22T07:50:24;3.60;99.90
52495;DHT22;38405;53.212;5.660;2022-12-22T07:52:58;3.60;99.90
52495;DHT22;38405;53.212;5.660;2022-12-22T07:55:25;3.50;99.90
52495;DHT22;38405;53.212;5.660;2022-12-22T07:57:52;3.50;99.90
52495;DHT22;38405;53.212;5.660;2022-12-22T08:00:18;3.50;99.90
52495;DHT22;38405;53.212;5.660;2022-12-22T08:02:54;3.60;99.90
52495;DHT22;38405;53.212;5.660;2022-12-22T08:05:24;3.60;99.90
52495;DHT22;38405;53.212;5.660;2022-12-22T08:07:51;3.70;99.90
52495;DHT22;38405;53.212;5.660;2022-12-22T08:10:18;3.70;99.90
52495;DHT22;38405;53.212;5.660;2022-12-22T08:12:44;3.80;99.90
52495;DHT22;38405;53.212;5.660;2022-12-22T08:15:10;3.80;99.90
52495;DHT22;38405;53.212;5.660;2022-12-22T08:17:36;4.00;99.90
52495;DHT22;38405;53.212;5.660;2022-12-22T08:20:02;3.70;99.90
52495;DHT22;38405;53.212;5.660;2022-12-22T08:22:29;3.70;99.90
52495;DHT22;38405;53.212;5.660;2022-12-22T08:24:55;3.70;99.90
52495;DHT22;38405;53.212;5.660;2022-12-22T08:27:35;3.70;99.90
52495;DHT22;38405;53.212;5.660;2022-12-22T08:30:06;3.60;99.90
52495;DHT22;38405;53.212;5.660;2022-12-22T08:32:33;3.60;99.90
52495;DHT22;38405;53.212;5.660;2022-12-22T08:34:59;3.60;99.90
52495;DHT22;38405;53.212;5.660;2022-12-22T08:37:26;3.60;99.90
52495;DHT22;38405;53.212;5.660;2022-12-22T08:39:56;3.60;99.90
52495;DHT22;38405;53.212;5.660;2022-12-22T08:42:24;3.70;99.90
52495;DHT22;38405;53.212;5.660;2022-12-22T08:44:50;3.80;99.90
52495;DHT22;38405;53.212;5.660;2022-12-22T08:47:19;3.80;99.90
52495;DHT22;38405;53.212;5.660;2022-12-22T08:49:45;3.80;99.90
52495;DHT22;38405;53.212;5.660;2022-12-22T08:52:11;3.80;99.90
52495;DHT22;38405;53.212;5.660;2022-12-22T08:54:36;3.90;99.90
52495;DHT22;38405;53.212;5.660;2022-12-22T08:57:02;4.00;99.90
52495;DHT22;38405;53.212;5.660;2022-12-22T08:59:27;4.10;99.90
52495;DHT22;38405;53.212;5.660;2022-12-22T09:01:53;4.30;99.90
52495;DHT22;38405;53.212;5.660;2022-12-22T09:04:21;4.50;99.90
52495;DHT22;38405;53.212;5.660;2022-12-22T09:06:46;4.60;99.90
52495;DHT22;38405;53.212;5.660;2022-12-22T09:09:13;4.80;99.90
52495;DHT22;38405;53.212;5.660;2022-12-22T09:11:39;5.00;99.90
52495;DHT22;38405;53.212;5.660;2022-12-22T09:14:06;5.10;99.90
52495;DHT22;38405;53.212;5.660;2022-12-22T09:16:33;5.30;99.90
52495;DHT22;38405;53.212;5.660;2022-12-22T09:18:59;5.50;99.90
52495;DHT22;38405;53.212;5.660;2022-12-22T09:21:25;5.90;99.90
52495;DHT22;38405;53.212;5.660;2022-12-22T09:23:50;6.10;99.90
52495;DHT22;38405;53.212;5.660;2022-12-22T09:26:18;6.20;99.90
52495;DHT22;38405;53.212;5.660;2022-12-22T09:28:44;6.30;99.90
52495;DHT22;38405;53.212;5.660;2022-12-22T09:31:10;6.40;99.90
52495;DHT22;38405;53.212;5.660;2022-12-22T09:33:36;6.60;99.90
52495;DHT22;38405;53.212;5.660;2022-12-22T09:36:06;6.70;99.90
52495;DHT22;38405;53.212;5.660;2022-12-22T09:38:32;6.90;99.90
52495;DHT22;38405;53.212;5.660;2022-12-22T09:40:58;7.00;99.90
52495;DHT22;38405;53.212;5.660;2022-12-22T09:43:29;7.30;99.90
52495;DHT22;38405;53.212;5.660;2022-12-22T09:45:56;7.50;99.90
52495;DHT22;38405;53.212;5.660;2022-12-22T09:48:25;7.70;99.90
52495;DHT22;38405;53.212;5.660;2022-12-22T09:50:54;7.70;99.90
52495;DHT22;38405;53.212;5.660;2022-12-22T09:53:21;7.80;99.90
52495;DHT22;38405;53.212;5.660;2022-12-22T09:55:49;7.80;99.90
52495;DHT22;38405;53.212;5.660;2022-12-22T09:58:25;7.80;99.90
52495;DHT22;38405;53.212;5.660;2022-12-22T10:01:23;7.80;99.90
52495;DHT22;38405;53.212;5.660;2022-12-22T10:03:49;7.70;99.90
52495;DHT22;38405;53.212;5.660;2022-12-22T10:06:28;7.70;99.90
52495;DHT22;38405;53.212;5.660;2022-12-22T10:09:10;7.60;99.90
52495;DHT22;38405;53.212;5.660;2022-12-22T10:11:38;7.60;99.90
52495;DHT22;38405;53.212;5.660;2022-12-22T10:14:04;7.60;99.90
52495;DHT22;38405;53.212;5.660;2022-12-22T10:16:30;7.60;99.90
52495;DHT22;38405;53.212;5.660;2022-12-22T10:19:08;7.60;99.90
52495;DHT22;38405;53.212;5.660;2022-12-22T10:21:35;7.60;99.90
52495;DHT22;38405;53.212;5.660;2022-12-22T10:24:26;7.70;99.90
52495;DHT22;38405;53.212;5.660;2022-12-22T10:26:55;7.90;99.90
52495;DHT22;38405;53.212;5.660;2022-12-22T10:29:22;8.20;99.90
52495;DHT22;38405;53.212;5.660;2022-12-22T10:32:00;8.50;99.90
52495;DHT22;38405;53.212;5.660;2022-12-22T10:34:26;8.60;99.90
52495;DHT22;38405;53.212;5.660;2022-12-22T10:36:55;8.80;99.90
52495;DHT22;38405;53.212;5.660;2022-12-22T10:39:25;9.00;99.90
52495;DHT22;38405;53.212;5.660;2022-12-22T10:41:54;9.10;99.90
52495;DHT22;38405;53.212;5.660;2022-12-22T10:44:27;9.20;99.90
52495;DHT22;38405;53.212;5.660;2022-12-22T10:47:00;9.30;99.90
52495;DHT22;38405;53.212;5.660;2022-12-22T10:49:40;9.40;99.90
52495;DHT22;38405;53.212;5.660;2022-12-22T10:52:21;9.50;99.90
52495;DHT22;38405;53.212;5.660;2022-12-22T10:54:47;9.50;99.90
52495;DHT22;38405;53.212;5.660;2022-12-22T10:59:58;9.60;99.90
52495;DHT22;38405;53.212;5.660;2022-12-22T11:02:27;9.60;99.90
52495;DHT22;38405;53.212;5.660;2022-12-22T11:04:59;9.60;99.90
52495;DHT22;38405;53.212;5.660;2022-12-22T11:07:27;9.70;99.90
52495;DHT22;38405;53.212;5.660;2022-12-22T11:09:53;9.70;99.90
52495;DHT22;38405;53.212;5.660;2022-12-22T11:17:47;9.80;99.90
52495;DHT22;38405;53.212;5.660;2022-12-22T11:25:58;10.00;99.90
52495;DHT22;38405;53.212;5.660;2022-12-22T11:36:38;10.10;99.90
52495;DHT22;38405;53.212;5.660;2022-12-22T11:39:14;10.10;99.90
52495;DHT22;38405;53.212;5.660;2022-12-22T11:44:38;10.10;99.90
52495;DHT22;38405;53.212;5.660;2022-12-22T11:55:23;10.00;99.90
52495;DHT22;38405;53.212;5.660;2022-12-22T11:58:15;10.00;99.90
52495;DHT22;38405;53.212;5.660;2022-12-22T12:01:09;10.10;99.90
52495;DHT22;38405;53.212;5.660;2022-12-22T12:06:16;9.90;99.90
52495;DHT22;38405;53.212;5.660;2022-12-22T12:13:48;9.30;99.90
52495;DHT22;38405;53.212;5.660;2022-12-22T12:16:28;9.10;99.90
52495;DHT22;38405;53.212;5.660;2022-12-22T12:22:00;8.80;99.90
52495;DHT22;38405;53.212;5.660;2022-12-22T12:24:53;8.70;99.90
52495;DHT22;38405;53.212;5.660;2022-12-22T12:30:20;8.70;99.90
52495;DHT22;38405;53.212;5.660;2022-12-22T12:33:03;8.70;99.90
52495;DHT22;38405;53.212;5.660;2022-12-22T12:38:09;8.70;99.90
52495;DHT22;38405;53.212;5.660;2022-12-22T12:40:53;8.70;99.90
52495;DHT22;38405;53.212;5.660;2022-12-22T12:43:21;8.70;99.90
52495;DHT22;38405;53.212;5.660;2022-12-22T12:45:48;8.80;99.90
52495;DHT22;38405;53.212;5.660;2022-12-22T12:50:52;8.80;99.90
52495;DHT22;38405;53.212;5.660;2022-12-22T12:53:19;8.80;99.90
52495;DHT22;38405;53.212;5.660;2022-12-22T13:04:03;8.90;99.90
52495;DHT22;38405;53.212;5.660;2022-12-22T13:06:50;8.90;99.90
52495;DHT22;38405;53.212;5.660;2022-12-22T13:09:21;8.90;99.90
52495;DHT22;38405;53.212;5.660;2022-12-22T13:11:47;9.00;99.90
52495;DHT22;38405;53.212;5.660;2022-12-22T13:17:40;9.00;99.90
52495;DHT22;38405;53.212;5.660;2022-12-22T13:20:20;9.00;99.90
52495;DHT22;38405;53.212;5.660;2022-12-22T13:22:52;9.00;99.90
52495;DHT22;38405;53.212;5.660;2022-12-22T13:25:18;8.90;99.90
52495;DHT22;38405;53.212;5.660;2022-12-22T13:27:44;9.00;99.90
52495;DHT22;38405;53.212;5.660;2022-12-22T13:30:19;9.00;99.90
52495;DHT22;38405;53.212;5.660;2022-12-22T13:32:47;9.00;99.90
52495;DHT22;38405;53.212;5.660;2022-12-22T13:35:36;9.00;99.90
52495;DHT22;38405;53.212;5.660;2022-12-22T13:38:03;9.10;99.90
52495;DHT22;38405;53.212;5.660;2022-12-22T13:40:49;9.20;99.90
52495;DHT22;38405;53.212;5.660;2022-12-22T13:43:16;9.20;99.90
52495;DHT22;38405;53.212;5.660;2022-12-22T13:45:52;9.30;99.90
52495;DHT22;38405;53.212;5.660;2022-12-22T13:48:38;9.30;99.90
52495;DHT22;38405;53.212;5.660;2022-12-22T13:51:08;9.40;99.90
52495;DHT22;38405;53.212;5.660;2022-12-22T13:53:46;9.40;99.90
52495;DHT22;38405;53.212;5.660;2022-12-22T13:56:25;9.40;99.90
52495;DHT22;38405;53.212;5.660;2022-12-22T13:58:59;9.30;99.90
52495;DHT22;38405;53.212;5.660;2022-12-22T14:01:26;9.20;99.90
52495;DHT22;38405;53.212;5.660;2022-12-22T14:03:57;9.20;99.90
52495;DHT22;38405;53.212;5.660;2022-12-22T14:08:51;9.10;99.90
52495;DHT22;38405;53.212;5.660;2022-12-22T14:11:17;9.10;99.90
52495;DHT22;38405;53.212;5.660;2022-12-22T14:13:43;9.00;99.90
52495;DHT22;38405;53.212;5.660;2022-12-22T14:16:12;8.90;99.90
52495;DHT22;38405;53.212;5.660;2022-12-22T14:18:38;8.90;99.90
52495;DHT22;38405;53.212;5.660;2022-12-22T14:21:05;8.80;99.90
52495;DHT22;38405;53.212;5.660;2022-12-22T14:23:39;8.80;99.90
52495;DHT22;38405;53.212;5.660;2022-12-22T14:26:07;8.80;99.90
52495;DHT22;38405;53.212;5.660;2022-12-22T14:28:41;8.70;99.90
52495;DHT22;38405;53.212;5.660;2022-12-22T14:31:14;8.70;99.90
52495;DHT22;38405;53.212;5.660;2022-12-22T14:33:50;8.60;99.90
52495;DHT22;38405;53.212;5.660;2022-12-22T14:36:25;8.60;99.90
52495;DHT22;38405;53.212;5.660;2022-12-22T14:38:53;8.50;99.90
52495;DHT22;38405;53.212;5.660;2022-12-22T14:41:45;8.50;99.90
52495;DHT22;38405;53.212;5.660;2022-12-22T14:44:45;8.40;99.90
52495;DHT22;38405;53.212;5.660;2022-12-22T14:50:17;8.50;99.90
52495;DHT22;38405;53.212;5.660;2022-12-22T14:52:46;8.30;99.90
52495;DHT22;38405;53.212;5.660;2022-12-22T14:55:28;8.30;99.90
52495;DHT22;38405;53.212;5.660;2022-12-22T15:00:37;8.20;99.90
52495;DHT22;38405;53.212;5.660;2022-12-22T15:05:49;8.10;99.90
52495;DHT22;38405;53.212;5.660;2022-12-22T15:08:43;8.00;99.90
52495;DHT22;38405;53.212;5.660;2022-12-22T15:11:10;7.90;99.90
52495;DHT22;38405;53.212;5.660;2022-12-22T15:13:37;8.00;99.90
52495;DHT22;38405;53.212;5.660;2022-12-22T15:16:03;7.90;99.90
52495;DHT22;38405;53.212;5.660;2022-12-22T15:18:29;7.90;99.90
52495;DHT22;38405;53.212;5.660;2022-12-22T15:20:56;7.80;99.90
52495;DHT22;38405;53.212;5.660;2022-12-22T15:23:22;7.80;99.90
52495;DHT22;38405;53.212;5.660;2022-12-22T15:25:48;7.80;99.90
52495;DHT22;38405;53.212;5.660;2022-12-22T15:28:14;7.80;99.90
52495;DHT22;38405;53.212;5.660;2022-12-22T15:30:40;7.70;99.90
52495;DHT22;38405;53.212;5.660;2022-12-22T15:33:15;7.60;99.90
52495;DHT22;38405;53.212;5.660;2022-12-22T15:35:41;7.60;99.90
52495;DHT22;38405;53.212;5.660;2022-12-22T15:38:16;7.50;99.90
52495;DHT22;38405;53.212;5.660;2022-12-22T15:40:42;7.50;99.90
52495;DHT22;38405;53.212;5.660;2022-12-22T15:43:08;7.40;99.90
52495;DHT22;38405;53.212;5.660;2022-12-22T15:45:33;7.40;99.90
52495;DHT22;38405;53.212;5.660;2022-12-22T15:48:01;7.40;99.90
52495;DHT22;38405;53.212;5.660;2022-12-22T15:50:36;7.20;99.90
52495;DHT22;38405;53.212;5.660;2022-12-22T15:53:04;7.20;99.90
52495;DHT22;38405;53.212;5.660;2022-12-22T15:55:31;7.20;99.90
52495;DHT22;38405;53.212;5.660;2022-12-22T15:57:57;7.10;99.90
52495;DHT22;38405;53.212;5.660;2022-12-22T16:00:24;7.10;99.90
52495;DHT22;38405;53.212;5.660;2022-12-22T16:02:50;7.10;99.90
52495;DHT22;38405;53.212;5.660;2022-12-22T16:05:16;7.10;99.90
52495;DHT22;38405;53.212;5.660;2022-12-22T16:07:43;7.10;99.90
52495;DHT22;38405;53.212;5.660;2022-12-22T16:10:38;7.00;99.90
52495;DHT22;38405;53.212;5.660;2022-12-22T16:13:04;7.10;99.90
52495;DHT22;38405;53.212;5.660;2022-12-22T16:15:32;7.00;99.90
52495;DHT22;38405;53.212;5.660;2022-12-22T16:17:59;7.00;99.90
52495;DHT22;38405;53.212;5.660;2022-12-22T16:20:26;7.10;99.90
52495;DHT22;38405;53.212;5.660;2022-12-22T16:22:52;7.10;99.90
52495;DHT22;38405;53.212;5.660;2022-12-22T16:25:26;7.00;99.90
52495;DHT22;38405;53.212;5.660;2022-12-22T16:27:54;7.10;99.90
52495;DHT22;38405;53.212;5.660;2022-12-22T16:30:25;7.10;99.90
52495;DHT22;38405;53.212;5.660;2022-12-22T16:32:52;7.10;99.90
52495;DHT22;38405;53.212;5.660;2022-12-22T16:35:20;7.10;99.90
52495;DHT22;38405;53.212;5.660;2022-12-22T16:37:47;7.10;99.90
52495;DHT22;38405;53.212;5.660;2022-12-22T16:40:18;7.00;99.90
52495;DHT22;38405;53.212;5.660;2022-12-22T16:42:57;7.00;99.90
52495;DHT22;38405;53.212;5.660;2022-12-22T16:45:26;7.00;99.90
52495;DHT22;38405;53.212;5.660;2022-12-22T16:47:56;6.90;99.90
52495;DHT22;38405;53.212;5.660;2022-12-22T16:50:24;6.90;99.90
52495;DHT22;38405;53.212;5.660;2022-12-22T16:52:58;6.90;99.90
52495;DHT22;38405;53.212;5.660;2022-12-22T16:55:25;6.80;99.90
52495;DHT22;38405;53.212;5.660;2022-12-22T16:57:50;6.80;99.90
52495;DHT22;38405;53.212;5.660;2022-12-22T17:00:22;6.70;99.90
52495;DHT22;38405;53.212;5.660;2022-12-22T17:03:22;6.70;99.90
52495;DHT22;38405;53.212;5.660;2022-12-22T17:05:51;6.60;99.90
52495;DHT22;38405;53.212;5.660;2022-12-22T17:08:22;6.60;99.90
52495;DHT22;38405;53.212;5.660;2022-12-22T17:10:49;6.60;99.90
52495;DHT22;38405;53.212;5.660;2022-12-22T17:13:16;6.50;99.90
52495;DHT22;38405;53.212;5.660;2022-12-22T17:15:42;6.90;99.90
52495;DHT22;38405;53.212;5.660;2022-12-22T17:18:21;6.50;99.90
52495;DHT22;38405;53.212;5.660;2022-12-22T17:20:53;6.50;99.90
52495;DHT22;38405;53.212;5.660;2022-12-22T17:23:41;6.50;99.90
52495;DHT22;38405;53.212;5.660;2022-12-22T17:26:10;6.50;99.90
52495;DHT22;38405;53.212;5.660;2022-12-22T17:28:37;6.50;99.90
52495;DHT22;38405;53.212;5.660;2022-12-22T17:31:03;6.50;99.90
52495;DHT22;38405;53.212;5.660;2022-12-22T17:33:29;6.50;99.90
52495;DHT22;38405;53.212;5.660;2022-12-22T17:35:55;6.50;99.90
52495;DHT22;38405;53.212;5.660;2022-12-22T17:38:22;6.50;99.90
52495;DHT22;38405;53.212;5.660;2022-12-22T17:40:50;6.50;99.90
52495;DHT22;38405;53.212;5.660;2022-12-22T17:43:18;6.50;99.90
52495;DHT22;38405;53.212;5.660;2022-12-22T17:45:44;6.60;99.90
52495;DHT22;38405;53.212;5.660;2022-12-22T17:48:14;6.50;99.90
52495;DHT22;38405;53.212;5.660;2022-12-22T17:50:41;6.90;99.90
52495;DHT22;38405;53.212;5.660;2022-12-22T17:53:13;6.50;99.90
52495;DHT22;38405;53.212;5.660;2022-12-22T17:55:39;6.50;99.90